createdAt,value
2023-02-11T00:04:53.352Z,-4.06
2023-02-11T00:09:53.696Z,-4.33
2023-02-11T00:14:54.367Z,-4.35
2023-02-11T00:19:52.802Z,-3.89
2023-02-11T00:24:50.937Z,-4.20
2023-02-11T00:29:49.884Z,-3.90
2023-02-11T00:34:52.688Z,-4.35
2023-02-11T00:39:50.511Z,-4.36
2023-02-11T00:44:52.108Z,-4.77
2023-02-11T00:49:51.483Z,-4.52
2023-02-11T00:54:54.378Z,-4.65
2023-02-11T00:59:56.611Z,-4.40
2023-02-11T01:04:55.190Z,-4.07
2023-02-11T01:09:54.652Z,-4.37
2023-02-11T01:14:56.906Z,-4.30
2023-02-11T01:19:58.809Z,-4.33
2023-02-11T01:24:57.717Z,-4.44
2023-02-11T01:29:59.980Z,-4.37
2023-02-11T01:35:01.054Z,-4.20
2023-02-11T01:39:59.816Z,-4.39
2023-02-11T01:45:04.450Z,-4.31
2023-02-11T01:50:02.896Z,-4.55
2023-02-11T01:55:24.545Z,-4.43
2023-02-11T02:00:30.455Z,-4.48
2023-02-11T02:05:46.984Z,-4.40
2023-02-11T02:10:47.267Z,-4.53
2023-02-11T02:16:03.871Z,-4.37
2023-02-11T02:21:24.762Z,-4.16
2023-02-11T02:26:38.907Z,-3.94
2023-02-11T02:31:48.155Z,-4.31
2023-02-11T02:37:17.866Z,-4.71
2023-02-11T02:42:20.111Z,-4.49
2023-02-11T02:47:20.663Z,-4.84
2023-02-11T02:53:04.387Z,-4.28
2023-02-11T02:58:26.009Z,-4.48
2023-02-11T03:03:44.041Z,-4.65
2023-02-11T03:08:53.902Z,-5.04
2023-02-11T03:13:55.396Z,-4.85
2023-02-11T03:18:59.801Z,-4.94
2023-02-11T03:24:29.066Z,-4.89
2023-02-11T03:30:06.671Z,-5.28
2023-02-11T03:35:50.158Z,-4.64
2023-02-11T03:40:57.941Z,-4.83
2023-02-11T03:46:00.215Z,-4.96
2023-02-11T03:51:03.745Z,-4.93
2023-02-11T03:56:15.000Z,-5.36
2023-02-11T04:01:17.891Z,-5.24
2023-02-11T04:06:19.156Z,-5.13
2023-02-11T04:11:18.148Z,-5.50
2023-02-11T04:16:20.620Z,-5.24
2023-02-11T04:21:24.533Z,-5.08
2023-02-11T04:26:22.946Z,-5.12
2023-02-11T04:31:22.160Z,-4.97
2023-02-11T04:36:23.922Z,-5.17
2023-02-11T04:41:22.481Z,-5.18
2023-02-11T04:46:22.517Z,-4.99
2023-02-11T04:51:23.748Z,-5.09
2023-02-11T04:56:25.053Z,-5.15
2023-02-11T05:01:26.696Z,-5.01
2023-02-11T05:06:27.519Z,-4.79
2023-02-11T05:11:29.645Z,-5.05
2023-02-11T05:16:30.034Z,-4.81
2023-02-11T05:21:30.769Z,-5.30
2023-02-11T05:26:31.222Z,-5.14
2023-02-11T05:31:32.807Z,-5.15
2023-02-11T05:36:33.832Z,-5.23
2023-02-11T05:41:35.129Z,-4.91
2023-02-11T05:46:36.457Z,-4.46
2023-02-11T05:51:39.186Z,-4.71
2023-02-11T05:56:37.810Z,-5.01
2023-02-11T06:01:38.228Z,-4.67
2023-02-11T06:06:39.269Z,-4.67
2023-02-11T06:11:40.214Z,-4.54
2023-02-11T06:16:39.572Z,-4.74
2023-02-11T06:21:44.186Z,-4.40
2023-02-11T06:26:41.826Z,-4.28
2023-02-11T06:31:43.050Z,-3.72
2023-02-11T06:36:44.577Z,-3.69
2023-02-11T06:41:46.348Z,-3.89
2023-02-11T06:46:44.662Z,-4.28
2023-02-11T06:51:46.516Z,-3.72
2023-02-11T06:56:47.487Z,-3.58
2023-02-11T07:01:46.437Z,-3.80
2023-02-11T07:06:49.473Z,-3.87
2023-02-11T07:11:50.775Z,-3.27
2023-02-11T07:16:53.372Z,-3.44
2023-02-11T07:21:53.108Z,-3.28
2023-02-11T07:26:51.353Z,-3.26
2023-02-11T07:31:49.054Z,-2.93
2023-02-11T07:36:50.551Z,-3.01
2023-02-11T07:41:49.391Z,-2.85
2023-02-11T07:46:49.836Z,-2.76
2023-02-11T07:51:51.094Z,-2.55
2023-02-11T07:56:51.157Z,-2.35
2023-02-11T08:01:53.634Z,-2.12
2023-02-11T08:06:58.972Z,-2.20
2023-02-11T08:11:57.877Z,-2.10
2023-02-11T08:16:55.297Z,-1.79
2023-02-11T08:22:07.710Z,-1.62
2023-02-11T08:27:07.110Z,-1.73
2023-02-11T08:32:08.285Z,-1.38
2023-02-11T08:37:05.699Z,-1.44
2023-02-11T08:42:03.878Z,-0.99
2023-02-11T08:47:04.698Z,-0.75
2023-02-11T08:52:13.029Z,-0.74
2023-02-11T08:57:14.058Z,-0.76
2023-02-11T09:02:15.554Z,-0.59
2023-02-11T09:07:16.089Z,-0.33
2023-02-11T09:12:17.235Z,-0.18
2023-02-11T09:17:17.895Z,0.32
2023-02-11T09:22:16.542Z,0.18
2023-02-11T09:27:21.133Z,0.17
2023-02-11T09:32:23.165Z,0.26
2023-02-11T09:37:24.634Z,0.51
2023-02-11T09:42:48.913Z,0.88
2023-02-11T09:47:55.037Z,0.78
2023-02-11T09:53:06.548Z,0.99
2023-02-11T09:58:31.042Z,0.87
2023-02-11T10:03:56.765Z,1.24
2023-02-11T10:09:07.497Z,1.39
2023-02-11T10:14:30.111Z,1.41
2023-02-11T10:20:09.471Z,1.54
2023-02-11T10:25:30.957Z,1.33
2023-02-11T10:30:35.603Z,1.53
2023-02-11T10:35:36.396Z,1.66
2023-02-11T10:40:39.563Z,1.82
2023-02-11T10:45:40.981Z,1.61
2023-02-11T10:50:39.442Z,1.81
2023-02-11T10:55:40.204Z,1.92
2023-02-11T11:00:43.136Z,1.95
2023-02-11T11:06:12.362Z,2.22
2023-02-11T11:11:15.431Z,2.14
2023-02-11T11:16:26.221Z,2.58
2023-02-11T11:21:36.586Z,2.52
2023-02-11T11:26:46.587Z,2.76
2023-02-11T11:32:01.550Z,2.81
2023-02-11T11:37:27.520Z,2.91
2023-02-11T11:42:28.374Z,3.10
2023-02-11T11:47:53.509Z,3.11
2023-02-11T11:53:05.061Z,3.09
2023-02-11T12:03:50.525Z,3.26
2023-02-11T12:15:07.254Z,3.39
2023-02-11T12:20:24.140Z,3.65
2023-02-11T12:25:50.336Z,3.63
2023-02-11T12:31:21.586Z,3.68
2023-02-11T12:36:46.778Z,3.97
2023-02-11T12:42:25.488Z,3.74
2023-02-11T12:47:36.436Z,4.00
2023-02-11T12:52:40.390Z,4.09
2023-02-11T12:57:44.431Z,3.97
2023-02-11T13:03:02.376Z,4.20
2023-02-11T13:08:23.801Z,4.08
2023-02-11T13:14:13.069Z,4.17
2023-02-11T13:19:18.021Z,4.41
2023-02-11T13:24:37.691Z,4.33
2023-02-11T13:30:34.876Z,4.50
2023-02-11T13:35:39.107Z,4.48
2023-02-11T13:40:40.659Z,4.54
2023-02-11T13:45:44.719Z,4.36
2023-02-11T13:50:52.106Z,4.70
2023-02-11T13:55:54.416Z,4.72
2023-02-11T14:01:05.310Z,4.73
2023-02-11T14:06:30.826Z,4.90
2023-02-11T14:11:42.117Z,4.86
2023-02-11T14:17:08.483Z,4.68
2023-02-11T14:22:18.899Z,5.00
2023-02-11T14:28:05.627Z,4.74
2023-02-11T14:33:22.904Z,5.04
2023-02-11T14:38:39.058Z,4.81
2023-02-11T14:44:03.234Z,4.41
2023-02-11T14:49:07.338Z,4.45
2023-02-11T14:54:16.857Z,4.44
2023-02-11T14:59:20.340Z,4.55
2023-02-11T15:04:40.737Z,4.46
2023-02-11T15:09:45.296Z,4.14
2023-02-11T15:14:54.285Z,4.07
2023-02-11T15:19:59.504Z,3.95
2023-02-11T15:25:05.867Z,3.52
2023-02-11T15:30:25.177Z,3.39
2023-02-11T15:35:30.475Z,3.20
2023-02-11T15:40:38.507Z,3.27
2023-02-11T15:45:59.441Z,3.06
2023-02-11T15:51:42.732Z,2.98
2023-02-11T15:57:01.713Z,2.67
2023-02-11T16:02:26.123Z,2.49
2023-02-11T16:08:03.579Z,2.71
2023-02-11T16:13:25.352Z,2.45
2023-02-11T16:18:39.802Z,2.09
2023-02-11T16:23:43.571Z,2.36
2023-02-11T16:28:44.150Z,1.89
2023-02-11T16:33:47.587Z,1.96
2023-02-11T16:38:46.924Z,1.84
2023-02-11T16:43:56.303Z,1.67
2023-02-11T16:49:11.646Z,1.61
2023-02-11T16:54:16.716Z,1.66
2023-02-11T16:59:17.143Z,1.66
2023-02-11T17:04:26.817Z,1.75
2023-02-11T17:09:30.240Z,1.47
2023-02-11T17:14:30.147Z,1.55
2023-02-11T17:19:28.420Z,1.41
2023-02-11T17:24:28.982Z,1.44
2023-02-11T17:29:31.105Z,1.22
2023-02-11T17:34:33.199Z,1.40
2023-02-11T17:39:33.640Z,1.07
2023-02-11T17:44:35.174Z,1.19
2023-02-11T17:49:33.998Z,1.00
2023-02-11T17:54:38.585Z,1.08
2023-02-11T17:59:44.845Z,0.78
2023-02-11T18:04:46.730Z,0.99
2023-02-11T18:09:44.262Z,0.73
2023-02-11T18:14:42.436Z,0.91
2023-02-11T18:19:40.853Z,1.04
2023-02-11T18:24:44.423Z,1.00
2023-02-11T18:29:44.284Z,0.79
2023-02-11T18:34:46.914Z,1.10
2023-02-11T18:39:48.456Z,0.96
2023-02-11T18:44:46.502Z,1.13
2023-02-11T18:49:49.078Z,1.26
2023-02-11T18:54:52.608Z,1.36
2023-02-11T18:59:54.081Z,1.40
2023-02-11T19:04:54.041Z,1.49
2023-02-11T19:10:04.317Z,1.55
2023-02-11T19:15:08.514Z,1.55
2023-02-11T19:20:09.522Z,1.76
2023-02-11T19:25:08.626Z,1.38
2023-02-11T19:30:10.882Z,1.63
2023-02-11T19:35:13.546Z,1.47
2023-02-11T19:40:20.425Z,1.61
2023-02-11T19:45:23.709Z,1.67
2023-02-11T19:50:25.436Z,1.54
2023-02-11T19:55:25.081Z,1.70
2023-02-11T20:00:25.833Z,1.75
2023-02-11T20:05:29.216Z,1.64
2023-02-11T20:10:34.591Z,1.67
2023-02-11T20:15:35.203Z,1.88
2023-02-11T20:20:34.034Z,1.79
2023-02-11T20:25:34.279Z,1.87
2023-02-11T20:30:36.235Z,1.77
2023-02-11T20:35:38.878Z,1.91
2023-02-11T20:40:40.664Z,2.01
2023-02-11T20:45:41.579Z,2.03
2023-02-11T20:50:45.970Z,2.14
2023-02-11T20:55:47.913Z,2.30
2023-02-11T21:00:45.955Z,2.15
2023-02-11T21:05:46.087Z,2.33
2023-02-11T21:10:44.076Z,2.42
2023-02-11T21:15:45.264Z,2.43
2023-02-11T21:20:46.700Z,2.23
2023-02-11T21:26:02.816Z,2.33
2023-02-11T21:31:06.098Z,2.43
2023-02-11T21:36:16.185Z,2.37
2023-02-11T21:41:22.742Z,2.43
2023-02-11T21:46:22.979Z,2.37
2023-02-11T21:51:36.056Z,2.48
2023-02-11T21:56:37.525Z,2.63
2023-02-11T22:01:41.228Z,2.62
2023-02-11T22:06:55.631Z,2.65
2023-02-11T22:11:54.808Z,2.56
2023-02-11T22:16:55.840Z,2.49
2023-02-11T22:21:59.368Z,2.41
2023-02-11T22:27:26.353Z,2.48
2023-02-11T22:32:27.666Z,2.38
2023-02-11T22:37:53.906Z,2.62
2023-02-11T22:42:54.733Z,2.47
2023-02-11T22:53:14.776Z,2.61
2023-02-11T22:58:18.987Z,2.40
2023-02-11T23:03:20.856Z,2.56
2023-02-11T23:08:23.378Z,2.39
2023-02-11T23:13:29.944Z,2.33
2023-02-11T23:18:32.983Z,2.22
2023-02-11T23:23:33.640Z,2.17
2023-02-11T23:28:36.234Z,2.19
2023-02-11T23:33:36.028Z,2.17
2023-02-11T23:38:35.742Z,2.09
2023-02-11T23:43:37.766Z,2.42
2023-02-11T23:48:40.666Z,2.37
2023-02-11T23:53:43.053Z,2.35
2023-02-11T23:58:44.537Z,2.04
